Bookmark and Share
Track history (hours):
 

F.r. Bigelow

More information available from US FCC via Universal Licensing System and Coast Guard Vessel Documentation Center.

Last reported at 2014-Apr-17 02:31 UTC. Time now 2014-Apr-17 03:51 UTC.
Position N 29°56' W 090°13'.

Length 46 m; draft 2.7 m.

Type: Tow > 200 m length. MMSI: 366953890.

NotesDate/timePositionNaut miles runAvg speedWind from/ knotsBaromVisibWave heightAir tempDewpointWater temp
2014-Apr-17 02:31N 29°56' W 090°13'  
2014-Apr-12 16:32N 29°58' W 090°18'7 1.8
2014-Apr-12 12:32N 29°60' W 090°25'0 0.0
2014-Apr-12 11:33N 29°60' W 090°25'0 0.0
2014-Apr-12 10:34N 29°60' W 090°25'0 0.0
2014-Apr-12 09:33N 29°60' W 090°25'0 0.0
2014-Apr-12 08:33N 29°60' W 090°25'0 0.0
2014-Apr-12 07:33N 29°60' W 090°25'0 0.0
2014-Apr-12 06:33N 29°60' W 090°25'0 0.0
2014-Apr-12 05:33N 29°60' W 090°25'0 0.2
2014-Apr-12 04:33N 29°60' W 090°25'1 0.6
2014-Apr-12 03:34N 29°59' W 090°25'4 3.8
2014-Apr-12 02:34N 29°56' W 090°22'21 1.0
2014-Apr-11 05:09N 29°47' W 090°01'13 0.5
2014-Apr-10 05:33N 29°57' W 090°09'5 4.7
2014-Apr-10 04:28N 29°58' W 090°15'6 6.3
2014-Apr-10 03:33N 29°56' W 090°21'6 6.3
2014-Apr-10 02:33N 29°60' W 090°27'4 4.3
2014-Apr-10 01:33N 30°03' W 090°31'1 1.3
2014-Apr-10 00:33N 30°03' W 090°32'0 0.0
2014-Apr-09 23:33N 30°03' W 090°32'1 1.3
2014-Apr-09 22:33N 30°03' W 090°31'0 0.0
2014-Apr-09 21:33N 30°03' W 090°31'0 0.2
2014-Apr-09 20:33N 30°03' W 090°31'0 0.0
2014-Apr-09 19:34N 30°03' W 090°31'0 0.0
2014-Apr-09 18:33N 30°03' W 090°31'0 0.0
2014-Apr-07 19:33N 30°03' W 090°31'0 0.0
2014-Apr-07 17:29N 30°03' W 090°31'0 0.0
2014-Apr-07 16:33N 30°03' W 090°31'0 0.0
2014-Apr-07 15:33N 30°03' W 090°31'0 0.0
2014-Apr-07 14:33N 30°03' W 090°31'0 0.0
2014-Apr-07 13:32N 30°03' W 090°31'0 0.1
2014-Apr-07 12:33N 30°03' W 090°31'0 0.1
2014-Apr-07 11:33N 30°03' W 090°31'0 0.0
2014-Apr-07 10:33N 30°03' W 090°31'0 0.0
2014-Apr-07 09:33N 30°03' W 090°31'1 0.6
2014-Apr-07 08:33N 30°03' W 090°31'5 5.3
2014-Apr-07 07:33N 30°02' W 090°37'3 3.4
2014-Apr-07 06:33N 30°02' W 090°41'0 0.1
2014-Apr-07 05:33N 30°02' W 090°41'0 0.0
2014-Apr-07 04:33N 30°02' W 090°41'3 2.7
2014-Apr-07 03:33N 30°03' W 090°38'3 3.5
2014-Apr-07 02:33N 30°03' W 090°34'  

Dump ship's entire track history

sailing weather and tide predictions

F.r. Bigelow — WDB8153 — position and weather